In Rescue
 
Open Full Screen Window  High Contrast Mode
Wind Gusting 00 knots
04
January 20, 2022 8:12 AM CST
Weather Information
Wind Direction
  240 °
Wind Speed
  04 kt (5 mph)
Wind Gust
  00 kt (0 mph)
Altimeter
30.58 in
Visibility
10 SM
Temperature
-31° C
-23° F
Dewpoint
-33° C
-26° F
Humidity
82%
1hr Rain Fall
00.00 in.
24hr Rain Fall
00.00 in.
Sky Condition
Clear
VFR

METAR KBJI 201412Z AUTO 24004KT 10SM CLR M31/M33 A3058 RMK AO2 T13071335

FAA Disclaimer: The data displayed is for advisory purposes only and is not to be used for flight planning or operations.